PWSweather.com
Personal Weather Stations
Station Observations
01979
Ravne Pri CerknemSI 5282

Ravne Pri CerknemSI 5282

Lat: 46.1213916, Lon: 13.952774299999987

Elevation: 2244.094488

Station Type: Techo Line WS2307

Latest ConditionsUpdated 5:50:30 PM GMT+01:01 Sunday, Jan 26, 2020
Currently Today's Max Today's Min Today's Average
Temperature 41.5°F5.3°C 43.5°F6.4°C 38.8°F3.8°C 40.6°F4.8°C
Dew Point 40.8°F4.9°C 42.8°F6.0°C 36.6°F2.6°C 39.4°F4.1°C
Winds Calm Calm Calm -Calm - - Calm Calm
Wind Gusts -- -- - -
Humidity 97% 98% 90% 95%
Pressure 30.14 in1020.7 mb 30.23 in1023.7 mb 30.13 in1020.3 mb -
Precipitation - 0.18 in4.6 mm - -
Hour Temp Dew Point Humidity Winds Wind Gusts Pressure Precip Precip Rate Daily Precip Total
05:50 PM 41.5°F5.3°C 40.8°F4.9°C 97% Calm Calm -- 30.14 in1020.7 mb 0.00 in0.0 mm 0.00 in0.0 mm 0.18 in4.6 mm
05:40 PM 41.4°F5.2°C 40.3°F4.6°C 96% Calm Calm -- 30.14 in1020.7 mb 0.00 in0.0 mm 0.00 in0.0 mm 0.18 in4.6 mm
05:30 PM 41.4°F5.2°C 40.3°F4.6°C 96% Calm Calm -- 30.14 in1020.7 mb 0.00 in0.0 mm 0.00 in0.0 mm 0.18 in4.6 mm
05:20 PM 41.4°F5.2°C 40.3°F4.6°C 96% Calm Calm -- 30.14 in1020.7 mb 0.00 in0.0 mm 0.00 in0.0 mm 0.18 in4.6 mm
05:10 PM 41.4°F5.2°C 40.3°F4.6°C 96% Calm Calm -- 30.14 in1020.7 mb 0.00 in0.0 mm 0.00 in0.0 mm 0.18 in4.6 mm
05:00 PM 41.5°F5.3°C 40.5°F4.7°C 96% Calm Calm -- 30.14 in1020.7 mb 0.00 in0.0 mm 0.00 in0.0 mm 0.18 in4.6 mm
04:50 PM 41.5°F5.3°C 40.5°F4.7°C 96% Calm Calm -- 30.13 in1020.3 mb 0.00 in0.0 mm 0.00 in0.0 mm 0.18 in4.6 mm
04:40 PM 41.7°F5.4°C 40.7°F4.8°C 96% Calm Calm -- 30.13 in1020.3 mb 0.00 in0.0 mm 0.00 in0.0 mm 0.18 in4.6 mm
04:30 PM 41.5°F5.3°C 40.5°F4.7°C 96% Calm Calm -- 30.14 in1020.7 mb 0.00 in0.0 mm 0.00 in0.0 mm 0.18 in4.6 mm
04:20 PM 41.7°F5.4°C 40.7°F4.8°C 96% Calm Calm -- 30.14 in1020.7 mb 0.00 in0.0 mm 0.00 in0.0 mm 0.18 in4.6 mm
04:10 PM 41.5°F5.3°C 40.5°F4.7°C 96% Calm Calm -- 30.14 in1020.7 mb 0.00 in0.0 mm 0.00 in0.0 mm 0.18 in4.6 mm
04:00 PM 41.7°F5.4°C 40.7°F4.8°C 96% Calm Calm -- 30.14 in1020.7 mb 0.00 in0.0 mm 0.00 in0.0 mm 0.18 in4.6 mm
03:50 PM 41.9°F5.5°C 40.8°F4.9°C 96% Calm Calm -- 30.14 in1020.7 mb 0.00 in0.0 mm 0.00 in0.0 mm 0.18 in4.6 mm
03:40 PM 41.7°F5.4°C 40.7°F4.8°C 96% Calm Calm -- 30.14 in1020.7 mb 0.00 in0.0 mm 0.00 in0.0 mm 0.18 in4.6 mm
03:30 PM 41.9°F5.5°C 40.8°F4.9°C 96% Calm Calm -- 30.14 in1020.7 mb 0.00 in0.0 mm 0.00 in0.0 mm 0.18 in4.6 mm
03:20 PM 42.3°F5.7°C 41.2°F5.1°C 96% Calm Calm -- 30.14 in1020.7 mb 0.00 in0.0 mm 0.00 in0.0 mm 0.18 in4.6 mm
03:10 PM 42.4°F5.8°C 41.4°F5.2°C 96% Calm Calm -- 30.14 in1020.7 mb 0.00 in0.0 mm 0.00 in0.0 mm 0.18 in4.6 mm
03:00 PM 42.8°F6.0°C 41.7°F5.4°C 96% Calm Calm -- 30.14 in1020.7 mb 0.00 in0.0 mm 0.00 in0.0 mm 0.18 in4.6 mm
02:50 PM 43.0°F6.1°C 41.9°F5.5°C 96% Calm Calm -- 30.14 in1020.7 mb 0.00 in0.0 mm 0.00 in0.0 mm 0.18 in4.6 mm
02:40 PM 43.5°F6.4°C 42.5°F5.8°C 96% Calm Calm -- 30.14 in1020.7 mb 0.00 in0.0 mm 0.00 in0.0 mm 0.18 in4.6 mm
02:30 PM 43.5°F6.4°C 42.7°F5.9°C 97% Calm Calm -- 30.15 in1021.0 mb 0.00 in0.0 mm 0.00 in0.0 mm 0.18 in4.6 mm
02:20 PM 42.6°F5.9°C 41.8°F5.4°C 97% Calm Calm -- 30.15 in1021.0 mb 0.00 in0.0 mm 0.00 in0.0 mm 0.18 in4.6 mm
02:10 PM 42.4°F5.8°C 41.6°F5.3°C 97% Calm Calm -- 30.15 in1021.0 mb 0.00 in0.0 mm 0.00 in0.0 mm 0.18 in4.6 mm
02:00 PM 42.3°F5.7°C 41.5°F5.3°C 97% Calm Calm -- 30.15 in1021.0 mb 0.00 in0.0 mm 0.00 in0.0 mm 0.18 in4.6 mm
01:50 PM 42.4°F5.8°C 41.6°F5.3°C 97% Calm Calm -- 30.15 in1021.0 mb 0.00 in0.0 mm 0.00 in0.0 mm 0.18 in4.6 mm
01:40 PM 43.0°F6.1°C 42.2°F5.7°C 97% Calm Calm -- 30.16 in1021.3 mb 0.00 in0.0 mm 0.00 in0.0 mm 0.18 in4.6 mm
01:30 PM 43.3°F6.3°C 42.5°F5.8°C 97% Calm Calm -- 30.16 in1021.3 mb 0.00 in0.0 mm 0.00 in0.0 mm 0.18 in4.6 mm
01:20 PM 43.0°F6.1°C 42.2°F5.7°C 97% Calm Calm -- 30.16 in1021.3 mb 0.00 in0.0 mm 0.00 in0.0 mm 0.18 in4.6 mm
01:10 PM 43.3°F6.3°C 42.8°F6.0°C 98% Calm Calm -- 30.16 in1021.3 mb 0.00 in0.0 mm 0.00 in0.0 mm 0.18 in4.6 mm
01:00 PM 42.6°F5.9°C 41.8°F5.4°C 97% Calm Calm -- 30.16 in1021.3 mb 0.00 in0.0 mm 0.00 in0.0 mm 0.18 in4.6 mm
12:50 PM 42.1°F5.6°C 41.3°F5.2°C 97% Calm Calm -- 30.17 in1021.7 mb 0.00 in0.0 mm 0.00 in0.0 mm 0.18 in4.6 mm
12:40 PM 41.9°F5.5°C 41.1°F5.1°C 97% Calm Calm -- 30.17 in1021.7 mb 0.00 in0.0 mm 0.00 in0.0 mm 0.18 in4.6 mm
12:30 PM 41.5°F5.3°C 40.8°F4.9°C 97% Calm Calm -- 30.18 in1022.0 mb 0.00 in0.0 mm 0.00 in0.0 mm 0.18 in4.6 mm
12:20 PM 41.5°F5.3°C 40.8°F4.9°C 97% Calm Calm -- 30.18 in1022.0 mb 0.00 in0.0 mm 0.00 in0.0 mm 0.18 in4.6 mm
12:10 PM 41.5°F5.3°C 40.8°F4.9°C 97% Calm Calm -- 30.19 in1022.4 mb 0.00 in0.0 mm 0.00 in0.0 mm 0.18 in4.6 mm
12:00 PM 41.5°F5.3°C 40.8°F4.9°C 97% Calm Calm -- 30.19 in1022.4 mb 0.00 in0.0 mm 0.00 in0.0 mm 0.18 in4.6 mm
11:50 AM 41.2°F5.1°C 40.4°F4.7°C 97% Calm Calm -- 30.19 in1022.4 mb 0.00 in0.0 mm 0.00 in0.0 mm 0.18 in4.6 mm
11:40 AM 41.2°F5.1°C 40.4°F4.7°C 97% Calm Calm -- 30.19 in1022.4 mb 0.00 in0.0 mm 0.00 in0.0 mm 0.18 in4.6 mm
11:30 AM 41.2°F5.1°C 40.4°F4.7°C 97% Calm Calm -- 30.20 in1022.7 mb 0.00 in0.0 mm 0.00 in0.0 mm 0.18 in4.6 mm
11:20 AM 41.4°F5.2°C 40.6°F4.8°C 97% Calm Calm -- 30.20 in1022.7 mb 0.00 in0.0 mm 0.00 in0.0 mm 0.18 in4.6 mm
11:10 AM 41.2°F5.1°C 40.4°F4.7°C 97% Calm Calm -- 30.20 in1022.7 mb 0.00 in0.0 mm 0.00 in0.0 mm 0.18 in4.6 mm
11:00 AM 41.2°F5.1°C 40.4°F4.7°C 97% Calm Calm -- 30.20 in1022.7 mb 0.00 in0.0 mm 0.00 in0.0 mm 0.18 in4.6 mm
10:50 AM 41.4°F5.2°C 40.6°F4.8°C 97% Calm Calm -- 30.20 in1022.7 mb 0.00 in0.0 mm 0.00 in0.0 mm 0.18 in4.6 mm
10:40 AM 41.5°F5.3°C 40.8°F4.9°C 97% Calm Calm -- 30.20 in1022.7 mb 0.00 in0.0 mm 0.00 in0.0 mm 0.18 in4.6 mm
10:30 AM 41.2°F5.1°C 40.4°F4.7°C 97% Calm Calm -- 30.20 in1022.7 mb 0.02 in0.5 mm 0.00 in0.0 mm 0.18 in4.6 mm
10:20 AM 41.2°F5.1°C 40.4°F4.7°C 97% Calm Calm -- 30.20 in1022.7 mb 0.02 in0.5 mm 0.00 in0.0 mm 0.18 in4.6 mm
10:10 AM 40.8°F4.9°C 39.8°F4.3°C 96% Calm Calm -- 30.20 in1022.7 mb 0.04 in1.0 mm 0.00 in0.0 mm 0.18 in4.6 mm
10:00 AM 40.8°F4.9°C 39.8°F4.3°C 96% Calm Calm -- 30.20 in1022.7 mb 0.06 in1.5 mm 0.00 in0.0 mm 0.18 in4.6 mm
09:50 AM 40.8°F4.9°C 39.8°F4.3°C 96% Calm Calm -- 30.20 in1022.7 mb 0.06 in1.5 mm 0.00 in0.0 mm 0.18 in4.6 mm
09:40 AM 40.8°F4.9°C 39.8°F4.3°C 96% Calm Calm -- 30.20 in1022.7 mb 0.08 in2.0 mm 0.12 in3.0 mm 0.18 in4.6 mm
09:30 AM 40.6°F4.8°C 39.6°F4.2°C 96% Calm Calm -- 30.20 in1022.7 mb 0.06 in1.5 mm 0.00 in0.0 mm 0.16 in4.1 mm
09:20 AM 40.3°F4.6°C 39.2°F4.0°C 96% Calm Calm -- 30.20 in1022.7 mb 0.06 in1.5 mm 0.12 in3.0 mm 0.16 in4.1 mm
09:10 AM 39.9°F4.4°C 38.9°F3.8°C 96% Calm Calm -- 30.19 in1022.4 mb 0.04 in1.0 mm 0.00 in0.0 mm 0.14 in3.6 mm
09:00 AM 40.3°F4.6°C 39.2°F4.0°C 96% Calm Calm -- 30.19 in1022.4 mb 0.04 in1.0 mm 0.02 in0.5 mm 0.12 in3.0 mm
08:50 AM 40.1°F4.5°C 39.1°F3.9°C 96% Calm Calm -- 30.19 in1022.4 mb 0.02 in0.5 mm 0.00 in0.0 mm 0.10 in2.5 mm
08:40 AM 39.6°F4.2°C 38.5°F3.6°C 96% Calm Calm -- 30.19 in1022.4 mb 0.02 in0.5 mm 0.00 in0.0 mm 0.10 in2.5 mm
08:30 AM 39.4°F4.1°C 38.3°F3.5°C 96% Calm Calm -- 30.19 in1022.4 mb 0.02 in0.5 mm 0.00 in0.0 mm 0.10 in2.5 mm
08:20 AM 39.9°F4.4°C 38.9°F3.8°C 96% Calm Calm -- 30.19 in1022.4 mb 0.02 in0.5 mm 0.00 in0.0 mm 0.10 in2.5 mm
08:10 AM 39.9°F4.4°C 38.9°F3.8°C 96% Calm Calm -- 30.19 in1022.4 mb 0.02 in0.5 mm 0.12 in3.0 mm 0.10 in2.5 mm
08:00 AM 39.7°F4.3°C 38.7°F3.7°C 96% Calm Calm -- 30.19 in1022.4 mb 0.00 in0.0 mm 0.00 in0.0 mm 0.08 in2.0 mm
07:50 AM 39.7°F4.3°C 38.7°F3.7°C 96% Calm Calm -- 30.18 in1022.0 mb 0.00 in0.0 mm 0.00 in0.0 mm 0.08 in2.0 mm
07:40 AM 39.7°F4.3°C 38.7°F3.7°C 96% Calm Calm -- 30.18 in1022.0 mb 0.00 in0.0 mm 0.00 in0.0 mm 0.08 in2.0 mm
07:30 AM 39.7°F4.3°C 38.7°F3.7°C 96% Calm Calm -- 30.19 in1022.4 mb 0.00 in0.0 mm 0.00 in0.0 mm 0.08 in2.0 mm
07:20 AM 39.7°F4.3°C 38.7°F3.7°C 96% Calm Calm -- 30.18 in1022.0 mb 0.00 in0.0 mm 0.00 in0.0 mm 0.08 in2.0 mm
07:10 AM 39.4°F4.1°C 38.3°F3.5°C 96% Calm Calm -- 30.18 in1022.0 mb 0.00 in0.0 mm 0.00 in0.0 mm 0.08 in2.0 mm
07:00 AM 39.4°F4.1°C 38.3°F3.5°C 96% Calm Calm -- 30.18 in1022.0 mb 0.00 in0.0 mm 0.00 in0.0 mm 0.08 in2.0 mm
06:50 AM 39.6°F4.2°C 38.5°F3.6°C 96% Calm Calm -- 30.18 in1022.0 mb 0.00 in0.0 mm 0.00 in0.0 mm 0.08 in2.0 mm
06:40 AM 39.6°F4.2°C 38.5°F3.6°C 96% Calm Calm -- 30.18 in1022.0 mb 0.00 in0.0 mm 0.00 in0.0 mm 0.08 in2.0 mm
06:30 AM 39.4°F4.1°C 38.3°F3.5°C 96% Calm Calm -- 30.18 in1022.0 mb 0.00 in0.0 mm 0.00 in0.0 mm 0.08 in2.0 mm
06:20 AM 39.4°F4.1°C 38.3°F3.5°C 96% Calm Calm -- 30.18 in1022.0 mb 0.00 in0.0 mm 0.00 in0.0 mm 0.08 in2.0 mm
06:10 AM 39.0°F3.9°C 38.0°F3.3°C 96% Calm Calm -- 30.18 in1022.0 mb 0.00 in0.0 mm 0.00 in0.0 mm 0.08 in2.0 mm
06:00 AM 39.0°F3.9°C 38.0°F3.3°C 96% Calm Calm -- 30.18 in1022.0 mb 0.00 in0.0 mm 0.00 in0.0 mm 0.08 in2.0 mm
05:50 AM 39.0°F3.9°C 38.0°F3.3°C 96% Calm Calm -- 30.18 in1022.0 mb 0.02 in0.5 mm 0.00 in0.0 mm 0.08 in2.0 mm
05:40 AM 39.0°F3.9°C 38.0°F3.3°C 96% Calm Calm -- 30.18 in1022.0 mb 0.02 in0.5 mm 0.00 in0.0 mm 0.08 in2.0 mm
05:30 AM 39.0°F3.9°C 38.0°F3.3°C 96% Calm Calm -- 30.18 in1022.0 mb 0.02 in0.5 mm 0.00 in0.0 mm 0.08 in2.0 mm
05:20 AM 39.0°F3.9°C 37.7°F3.2°C 95% Calm Calm -- 30.18 in1022.0 mb 0.02 in0.5 mm 0.00 in0.0 mm 0.08 in2.0 mm
05:10 AM 39.0°F3.9°C 37.7°F3.2°C 95% Calm Calm -- 30.18 in1022.0 mb 0.02 in0.5 mm 0.00 in0.0 mm 0.08 in2.0 mm
05:00 AM 38.8°F3.8°C 37.5°F3.1°C 95% Calm Calm -- 30.18 in1022.0 mb 0.02 in0.5 mm 0.02 in0.5 mm 0.08 in2.0 mm
04:50 AM 39.0°F3.9°C 37.7°F3.2°C 95% Calm Calm -- 30.18 in1022.0 mb 0.00 in0.0 mm 0.00 in0.0 mm 0.06 in1.5 mm
04:40 AM 39.0°F3.9°C 37.7°F3.2°C 95% Calm Calm -- 30.18 in1022.0 mb 0.00 in0.0 mm 0.00 in0.0 mm 0.06 in1.5 mm
04:30 AM 39.0°F3.9°C 37.7°F3.2°C 95% Calm Calm -- 30.18 in1022.0 mb 0.02 in0.5 mm 0.00 in0.0 mm 0.06 in1.5 mm
04:20 AM 39.2°F4.0°C 37.9°F3.3°C 95% Calm Calm -- 30.19 in1022.4 mb 0.02 in0.5 mm 0.00 in0.0 mm 0.06 in1.5 mm
04:10 AM 39.0°F3.9°C 37.7°F3.2°C 94% Calm Calm -- 30.19 in1022.4 mb 0.02 in0.5 mm 0.00 in0.0 mm 0.06 in1.5 mm
04:00 AM 38.8°F3.8°C 37.3°F2.9°C 94% Calm Calm -- 30.19 in1022.4 mb 0.02 in0.5 mm 0.00 in0.0 mm 0.06 in1.5 mm
03:50 AM 39.4°F4.1°C 37.8°F3.2°C 94% Calm Calm -- 30.19 in1022.4 mb 0.04 in1.0 mm 0.00 in0.0 mm 0.06 in1.5 mm
03:40 AM 39.7°F4.3°C 38.2°F3.4°C 94% Calm Calm -- 30.19 in1022.4 mb 0.04 in1.0 mm 0.12 in3.0 mm 0.06 in1.5 mm
03:30 AM 39.4°F4.1°C 37.8°F3.2°C 94% Calm Calm -- 30.20 in1022.7 mb 0.02 in0.5 mm 0.00 in0.0 mm 0.04 in1.0 mm
03:20 AM 39.4°F4.1°C 37.8°F3.2°C 94% Calm Calm -- 30.20 in1022.7 mb 0.02 in0.5 mm 0.00 in0.0 mm 0.04 in1.0 mm
03:10 AM 38.8°F3.8°C 37.0°F2.8°C 93% Calm Calm -- 30.20 in1022.7 mb 0.04 in1.0 mm 0.00 in0.0 mm 0.04 in1.0 mm
03:00 AM 39.0°F3.9°C 37.2°F2.9°C 93% Calm Calm -- 30.20 in1022.7 mb 0.04 in1.0 mm 0.02 in0.5 mm 0.04 in1.0 mm
02:50 AM 39.0°F3.9°C 37.2°F2.9°C 93% Calm Calm -- 30.21 in1023.0 mb 0.02 in0.5 mm 0.00 in0.0 mm 0.02 in0.5 mm
02:40 AM 39.0°F3.9°C 37.2°F2.9°C 93% Calm Calm -- 30.21 in1023.0 mb 0.02 in0.5 mm 0.00 in0.0 mm 0.02 in0.5 mm
02:30 AM 38.8°F3.8°C 37.0°F2.8°C 93% Calm Calm -- 30.21 in1023.0 mb 0.02 in0.5 mm 0.00 in0.0 mm 0.02 in0.5 mm
02:20 AM 39.0°F3.9°C 36.9°F2.7°C 92% Calm Calm -- 30.21 in1023.0 mb 0.02 in0.5 mm 0.12 in3.0 mm 0.02 in0.5 mm
02:10 AM 39.0°F3.9°C 36.6°F2.6°C 91% Calm Calm -- 30.21 in1023.0 mb 0.00 in0.0 mm 0.00 in0.0 mm 0.00 in0.0 mm
02:03 AM 40.3°F4.6°C 37.9°F3.3°C 91% Calm Calm -- 30.21 in1023.0 mb 0.00 in0.0 mm 0.00 in0.0 mm 0.00 in0.0 mm
02:00 AM 39.6°F4.2°C 37.2°F2.9°C 91% Calm Calm -- 30.21 in1023.0 mb 0.00 in0.0 mm 0.00 in0.0 mm 0.00 in0.0 mm
01:50 AM 40.3°F4.6°C 37.9°F3.3°C 91% Calm Calm -- 30.21 in1023.0 mb 0.00 in0.0 mm 0.00 in0.0 mm 0.00 in0.0 mm
01:40 AM 40.3°F4.6°C 37.9°F3.3°C 91% Calm Calm -- 30.21 in1023.0 mb 0.00 in0.0 mm 0.00 in0.0 mm 0.00 in0.0 mm
01:30 AM 40.3°F4.6°C 37.9°F3.3°C 91% Calm Calm -- 30.21 in1023.0 mb 0.00 in0.0 mm 0.00 in0.0 mm 0.00 in0.0 mm
01:20 AM 40.3°F4.6°C 37.9°F3.3°C 91% Calm Calm -- 30.21 in1023.0 mb 0.00 in0.0 mm 0.00 in0.0 mm 0.00 in0.0 mm
01:10 AM 40.5°F4.7°C 37.8°F3.2°C 90% Calm Calm -- 30.22 in1023.4 mb 0.00 in0.0 mm 0.00 in0.0 mm 0.00 in0.0 mm
01:00 AM 40.6°F4.8°C 37.9°F3.3°C 90% Calm Calm -- 30.22 in1023.4 mb 0.00 in0.0 mm 0.00 in0.0 mm 0.00 in0.0 mm
12:50 AM 40.8°F4.9°C 38.1°F3.4°C 90% Calm Calm -- 30.21 in1023.0 mb 0.00 in0.0 mm 0.00 in0.0 mm 0.00 in0.0 mm
12:40 AM 40.6°F4.8°C 37.9°F3.3°C 90% Calm Calm -- 30.22 in1023.4 mb 0.00 in0.0 mm 0.00 in0.0 mm 0.00 in0.0 mm
12:30 AM 40.8°F4.9°C 38.4°F3.6°C 91% Calm Calm -- 30.22 in1023.4 mb 0.00 in0.0 mm 0.00 in0.0 mm 0.00 in0.0 mm
12:20 AM 40.6°F4.8°C 37.9°F3.3°C 90% Calm Calm -- 30.22 in1023.4 mb 0.00 in0.0 mm 0.00 in0.0 mm 0.00 in0.0 mm
12:10 AM 40.8°F4.9°C 38.1°F3.4°C 90% Calm Calm -- 30.23 in1023.7 mb 0.00 in0.0 mm 0.00 in0.0 mm 0.00 in0.0 mm
12:00 AM 40.8°F4.9°C 38.1°F3.4°C 90% Calm Calm -- 30.22 in1023.4 mb 0.00 in0.0 mm 0.00 in0.0 mm 0.00 in0.0 mm